createdAt,value
2022-09-06T00:00:44.324Z,101779.59
2022-09-06T00:03:10.789Z,101775.91
2022-09-06T00:05:37.867Z,101779.66
2022-09-06T00:08:05.957Z,101782.44
2022-09-06T00:10:33.406Z,101773.47
2022-09-06T00:13:05.395Z,101781.97
2022-09-06T00:15:31.977Z,101781.66
2022-09-06T00:18:00.005Z,101777.53
2022-09-06T00:20:27.942Z,101775.59
2022-09-06T00:23:02.208Z,101773.94
2022-09-06T00:25:29.403Z,101777.66
2022-09-06T00:27:57.594Z,101768.63
2022-09-06T00:30:25.489Z,101771.94
2022-09-06T00:32:53.154Z,101764.53
2022-09-06T00:35:20.888Z,101772.31
2022-09-06T00:37:47.952Z,101777.56
2022-09-06T00:40:14.900Z,101762.38
2022-09-06T00:42:41.615Z,101764.66
2022-09-06T00:45:17.991Z,101768.38
2022-09-06T00:47:45.386Z,101768.72
2022-09-06T00:50:13.871Z,101768.53
2022-09-06T00:52:42.246Z,101769.38
2022-09-06T00:55:09.071Z,101766.56
2022-09-06T00:57:36.027Z,101768.63
2022-09-06T01:00:05.377Z,101766.91
2022-09-06T01:02:31.955Z,101763.53
2022-09-06T01:04:58.809Z,101763.84
2022-09-06T01:08:02.730Z,101772.00
2022-09-06T01:10:41.700Z,101765.25
2022-09-06T01:13:24.675Z,101766.97
2022-09-06T01:16:15.850Z,101761.88
2022-09-06T01:19:25.786Z,101759.69
2022-09-06T01:22:35.735Z,101764.75
2022-09-06T01:25:20.777Z,101756.31
2022-09-06T01:28:29.291Z,101763.13
2022-09-06T01:31:25.132Z,101765.34
2022-09-06T01:34:03.743Z,101760.03
2022-09-06T01:36:45.924Z,101768.25
2022-09-06T01:39:29.877Z,101753.84
2022-09-06T01:41:58.508Z,101756.69
2022-09-06T01:44:27.323Z,101755.00
2022-09-06T01:46:58.024Z,101749.94
2022-09-06T01:49:36.298Z,101756.84
2022-09-06T01:52:21.861Z,101759.88
2022-09-06T01:55:14.045Z,101763.88
2022-09-06T01:58:08.254Z,101766.25
2022-09-06T02:00:43.666Z,101763.16
2022-09-06T02:03:32.989Z,101760.28
2022-09-06T02:06:17.266Z,101768.22
2022-09-06T02:09:04.619Z,101759.53
2022-09-06T02:11:37.737Z,101758.69
2022-09-06T02:14:10.919Z,101759.84
2022-09-06T02:16:40.874Z,101754.50
2022-09-06T02:19:14.803Z,101741.53
2022-09-06T02:21:45.547Z,101744.72
2022-09-06T02:24:18.724Z,101748.38
2022-09-06T02:26:46.601Z,101740.41
2022-09-06T02:29:13.767Z,101748.44
2022-09-06T02:31:47.872Z,101752.63
2022-09-06T02:34:17.897Z,101754.66
2022-09-06T02:36:44.765Z,101752.44
2022-09-06T02:39:12.419Z,101748.53
2022-09-06T02:41:41.190Z,101754.16
2022-09-06T02:44:07.684Z,101756.69
2022-09-06T02:46:34.179Z,101748.03
2022-09-06T02:49:00.652Z,101743.91
2022-09-06T02:51:27.100Z,101743.97
2022-09-06T02:53:53.534Z,101740.78
2022-09-06T02:56:19.984Z,101746.00
2022-09-06T02:58:46.429Z,101754.47
2022-09-06T03:01:12.922Z,101754.25
2022-09-06T03:03:39.406Z,101751.06
2022-09-06T03:06:06.048Z,101750.28
2022-09-06T03:08:34.145Z,101750.25
2022-09-06T03:11:00.994Z,101754.00
2022-09-06T03:13:27.964Z,101751.75
2022-09-06T03:15:57.147Z,101746.16
2022-09-06T03:18:25.030Z,101740.75
2022-09-06T03:20:52.869Z,101737.94
2022-09-06T03:23:20.437Z,101743.03
2022-09-06T03:25:47.187Z,101739.66
2022-09-06T03:28:13.890Z,101723.88
2022-09-06T03:30:40.944Z,101738.31
2022-09-06T03:33:07.435Z,101732.38
2022-09-06T03:35:33.982Z,101741.66
2022-09-06T03:38:00.402Z,101730.38
2022-09-06T03:40:26.862Z,101733.50
2022-09-06T03:42:53.335Z,101738.34
2022-09-06T03:45:20.258Z,101741.69
2022-09-06T03:47:46.682Z,101732.66
2022-09-06T03:50:13.134Z,101733.53
2022-09-06T03:52:39.546Z,101742.84
2022-09-06T03:55:06.465Z,101731.56
2022-09-06T03:57:33.174Z,101739.53
2022-09-06T03:59:59.606Z,101739.25
2022-09-06T04:02:26.131Z,101733.91
2022-09-06T04:04:55.463Z,101725.72
2022-09-06T04:07:22.964Z,101730.00
2022-09-06T04:09:49.570Z,101722.94
2022-09-06T04:12:16.011Z,101737.03
2022-09-06T04:14:42.463Z,101727.75
2022-09-06T04:17:08.906Z,101734.81
2022-09-06T04:19:35.349Z,101728.34
2022-09-06T04:22:01.802Z,101724.16
2022-09-06T04:24:28.246Z,101723.06
2022-09-06T04:26:54.672Z,101722.47
2022-09-06T04:29:21.121Z,101719.16
2022-09-06T04:31:47.581Z,101707.59
2022-09-06T04:34:14.164Z,101706.19
2022-09-06T04:36:40.606Z,101713.50
2022-09-06T04:39:07.089Z,101712.13
2022-09-06T04:41:33.547Z,101714.38
2022-09-06T04:44:00.006Z,101706.47
2022-09-06T04:46:30.575Z,101703.97
2022-09-06T04:48:57.766Z,101703.34
2022-09-06T04:51:25.235Z,101713.25
2022-09-06T04:53:52.371Z,101704.47
2022-09-06T04:56:21.879Z,101702.19
2022-09-06T04:58:49.509Z,101708.13
2022-09-06T05:01:16.297Z,101703.63
2022-09-06T05:03:42.993Z,101685.03
2022-09-06T05:06:21.398Z,101677.88
2022-09-06T05:08:48.574Z,101681.56
2022-09-06T05:11:15.617Z,101685.41
2022-09-06T05:13:42.288Z,101689.31
2022-09-06T05:16:09.541Z,101693.47
2022-09-06T05:18:36.187Z,101693.69
2022-09-06T05:21:02.735Z,101692.78
2022-09-06T05:23:29.340Z,101696.72
2022-09-06T05:25:55.789Z,101683.66
2022-09-06T05:28:23.059Z,101692.22
2022-09-06T05:30:49.503Z,101700.63
2022-09-06T05:33:21.203Z,101698.84
2022-09-06T05:35:48.901Z,101699.59
2022-09-06T05:38:15.639Z,101700.22
2022-09-06T05:40:42.156Z,101700.00
2022-09-06T05:43:08.596Z,101708.97
2022-09-06T05:45:35.060Z,101710.03
2022-09-06T05:48:01.617Z,101712.06
2022-09-06T05:50:30.870Z,101708.41
2022-09-06T05:52:57.295Z,101702.75
2022-09-06T05:55:23.761Z,101694.16
2022-09-06T05:57:50.194Z,101691.69
2022-09-06T06:00:16.866Z,101682.56
2022-09-06T06:02:43.360Z,101676.31
2022-09-06T06:05:09.831Z,101677.34
2022-09-06T06:07:36.247Z,101668.66
2022-09-06T06:10:02.797Z,101668.03
2022-09-06T06:12:29.267Z,101672.03
2022-09-06T06:14:55.678Z,101677.91
2022-09-06T06:17:22.092Z,101683.09
2022-09-06T06:19:48.581Z,101689.16
2022-09-06T06:22:15.025Z,101693.91
2022-09-06T06:24:41.449Z,101699.00
2022-09-06T06:27:07.870Z,101690.56
2022-09-06T06:29:34.307Z,101692.84
2022-09-06T06:32:00.831Z,101698.16
2022-09-06T06:34:27.334Z,101690.16
2022-09-06T06:36:53.752Z,101702.75
2022-09-06T06:39:20.191Z,101692.16
2022-09-06T06:41:47.866Z,101689.00
2022-09-06T06:44:37.691Z,101688.91
2022-09-06T06:47:04.163Z,101677.69
2022-09-06T06:49:30.603Z,101673.84
2022-09-06T06:51:57.051Z,101677.38
2022-09-06T06:54:23.482Z,101674.34
2022-09-06T06:56:49.909Z,101666.44
2022-09-06T06:59:16.334Z,101673.69
2022-09-06T07:01:42.972Z,101668.63
2022-09-06T07:04:10.478Z,101668.69
2022-09-06T07:12:24.477Z,101672.44
2022-09-06T07:14:50.966Z,101663.50
2022-09-06T07:17:17.370Z,101661.63
2022-09-06T07:22:30.211Z,101670.09
2022-09-06T07:24:56.622Z,101679.41
2022-09-06T07:30:10.362Z,101681.06
2022-09-06T07:32:36.981Z,101680.09
2022-09-06T07:35:03.621Z,101677.91
2022-09-06T07:37:30.060Z,101678.91
2022-09-06T07:39:56.575Z,101667.53
2022-09-06T07:42:23.062Z,101671.44
2022-09-06T07:44:49.477Z,101656.53
2022-09-06T07:55:33.454Z,101663.03
2022-09-06T07:57:59.893Z,101665.94
2022-09-06T08:00:26.408Z,101658.88
2022-09-06T08:02:52.863Z,101669.91
2022-09-06T08:10:52.184Z,101677.41
2022-09-06T08:13:18.647Z,101679.88
2022-09-06T08:15:45.110Z,101682.19
2022-09-06T08:18:11.713Z,101689.22
2022-09-06T08:20:38.158Z,101685.41
2022-09-06T08:23:12.201Z,101686.94
2022-09-06T08:25:38.766Z,101679.06
2022-09-06T08:28:05.211Z,101673.88
2022-09-06T08:30:33.225Z,101685.81
2022-09-06T08:32:59.777Z,101685.44
2022-09-06T08:35:26.239Z,101676.88
2022-09-06T08:37:52.691Z,101678.50
2022-09-06T08:40:23.679Z,101667.38
2022-09-06T08:42:50.563Z,101664.59
2022-09-06T08:45:23.236Z,101658.81
2022-09-06T08:47:52.315Z,101650.13
2022-09-06T08:50:19.845Z,101655.38
2022-09-06T08:53:06.170Z,101647.94
2022-09-06T08:55:52.844Z,101655.56
2022-09-06T08:58:34.755Z,101654.06
2022-09-06T09:01:06.108Z,101653.78
2022-09-06T09:03:36.839Z,101653.34
2022-09-06T09:06:06.559Z,101655.84
2022-09-06T09:08:42.999Z,101648.22
2022-09-06T09:11:15.293Z,101647.75
2022-09-06T09:14:01.659Z,101653.75
2022-09-06T09:16:28.199Z,101635.97
2022-09-06T09:19:01.872Z,101639.13
2022-09-06T09:21:32.191Z,101630.03
2022-09-06T09:24:04.363Z,101627.34
2022-09-06T09:26:36.875Z,101617.06
2022-09-06T09:29:09.079Z,101625.59
2022-09-06T09:31:39.193Z,101630.97
2022-09-06T09:34:10.371Z,101631.16
2022-09-06T09:36:36.995Z,101622.75
2022-09-06T09:39:09.891Z,101617.78
2022-09-06T09:41:40.831Z,101615.63
2022-09-06T09:44:09.470Z,101611.72
2022-09-06T09:46:37.655Z,101607.44
2022-09-06T09:49:28.610Z,101604.63
2022-09-06T09:52:14.717Z,101612.47
2022-09-06T09:54:44.437Z,101595.91
2022-09-06T09:57:18.724Z,101599.69
2022-09-06T09:59:50.408Z,101599.84
2022-09-06T10:02:25.141Z,101599.91
2022-09-06T10:05:04.096Z,101595.56
2022-09-06T10:07:32.675Z,101597.06
2022-09-06T10:10:10.721Z,101590.38
2022-09-06T10:12:39.523Z,101592.06
2022-09-06T10:15:11.799Z,101591.38
2022-09-06T10:17:47.163Z,101593.25
2022-09-06T10:20:13.907Z,101586.50
2022-09-06T10:22:58.772Z,101580.34
2022-09-06T10:25:49.052Z,101575.66
2022-09-06T10:28:31.342Z,101575.84
2022-09-06T10:31:36.795Z,101575.84
2022-09-06T10:34:20.114Z,101571.00
2022-09-06T10:37:01.303Z,101567.34
2022-09-06T10:39:42.302Z,101571.66
2022-09-06T10:42:27.333Z,101568.81
2022-09-06T10:45:16.102Z,101565.50
2022-09-06T10:48:02.639Z,101561.94
2022-09-06T10:50:43.581Z,101557.28
2022-09-06T10:53:16.541Z,101546.72
2022-09-06T10:55:49.131Z,101556.69
2022-09-06T10:58:22.185Z,101549.03
2022-09-06T11:00:50.512Z,101547.53
2022-09-06T11:06:19.499Z,101547.91
2022-09-06T11:08:58.168Z,101540.34
2022-09-06T11:11:43.924Z,101541.84
2022-09-06T11:14:13.604Z,101545.53
2022-09-06T11:16:48.074Z,101542.19
2022-09-06T11:19:29.881Z,101538.31
2022-09-06T11:22:44.407Z,101544.66
2022-09-06T11:25:44.004Z,101538.81
2022-09-06T11:28:15.802Z,101535.78
2022-09-06T11:30:47.008Z,101532.44
2022-09-06T11:33:23.236Z,101540.91
2022-09-06T11:35:50.439Z,101541.13
2022-09-06T11:38:16.811Z,101538.28
2022-09-06T11:40:56.290Z,101529.91
2022-09-06T11:43:46.604Z,101535.63
2022-09-06T11:46:34.822Z,101530.41
2022-09-06T11:49:10.947Z,101531.91
2022-09-06T11:51:46.718Z,101527.66
2022-09-06T11:54:18.891Z,101537.72
2022-09-06T11:56:57.479Z,101524.47
2022-09-06T11:59:31.734Z,101526.63
2022-09-06T12:01:58.091Z,101526.44
2022-09-06T12:04:24.667Z,101524.63
2022-09-06T12:07:11.340Z,101529.13
2022-09-06T12:09:40.722Z,101511.16
2022-09-06T12:12:09.452Z,101512.84
2022-09-06T12:14:40.889Z,101513.81
2022-09-06T12:17:08.335Z,101502.34
2022-09-06T12:19:44.982Z,101507.84
2022-09-06T12:22:26.604Z,101503.56
2022-09-06T12:25:01.705Z,101494.94
2022-09-06T12:27:31.730Z,101500.06
2022-09-06T12:30:00.031Z,101492.09
2022-09-06T12:32:48.386Z,101488.38
2022-09-06T12:38:11.991Z,101497.78
2022-09-06T12:40:45.327Z,101488.09
2022-09-06T12:43:14.455Z,101485.19
2022-09-06T12:45:50.764Z,101476.41
2022-09-06T12:48:31.438Z,101478.47
2022-09-06T12:51:21.071Z,101473.72
2022-09-06T12:53:55.262Z,101468.97
2022-09-06T12:56:23.612Z,101472.16
2022-09-06T12:58:50.375Z,101471.28
2022-09-06T13:01:26.652Z,101463.59
2022-09-06T13:04:02.740Z,101465.47
2022-09-06T13:06:33.424Z,101455.03
2022-09-06T13:09:01.446Z,101457.19
2022-09-06T13:11:36.626Z,101452.91
2022-09-06T13:14:14.276Z,101452.41
2022-09-06T13:16:47.228Z,101458.38
2022-09-06T13:19:16.210Z,101447.41
2022-09-06T13:21:47.210Z,101451.38
2022-09-06T13:24:32.146Z,101445.78
2022-09-06T13:26:58.583Z,101433.06
2022-09-06T13:29:30.580Z,101436.25
2022-09-06T13:31:59.644Z,101439.44
2022-09-06T13:34:28.771Z,101430.41
2022-09-06T13:37:01.922Z,101427.72
2022-09-06T13:39:37.531Z,101426.94
2022-09-06T13:42:24.614Z,101432.41
2022-09-06T13:44:51.157Z,101431.34
2022-09-06T13:47:17.583Z,101429.84
2022-09-06T13:49:44.083Z,101425.69
2022-09-06T13:52:10.515Z,101431.66
2022-09-06T13:54:37.057Z,101431.44
2022-09-06T13:57:03.671Z,101421.22
2022-09-06T13:59:30.474Z,101416.75
2022-09-06T14:02:05.787Z,101411.63
2022-09-06T14:04:39.622Z,101414.88
2022-09-06T14:07:07.351Z,101409.25
2022-09-06T14:09:33.845Z,101421.63
2022-09-06T14:12:00.673Z,101414.03
2022-09-06T14:14:27.092Z,101415.13
2022-09-06T14:16:54.042Z,101411.31
2022-09-06T14:19:20.458Z,101408.59
2022-09-06T14:21:46.907Z,101417.19
2022-09-06T14:24:13.340Z,101424.47
2022-09-06T14:26:39.842Z,101426.09
2022-09-06T14:29:06.530Z,101428.97
2022-09-06T14:31:33.026Z,101421.13
2022-09-06T14:34:00.859Z,101418.50
2022-09-06T14:36:31.934Z,101412.78
2022-09-06T14:39:00.004Z,101415.81
2022-09-06T14:41:27.066Z,101415.19
2022-09-06T14:43:55.980Z,101405.91
2022-09-06T14:46:23.255Z,101421.72
2022-09-06T14:48:56.948Z,101416.16
2022-09-06T14:51:24.818Z,101413.19
2022-09-06T14:53:54.195Z,101407.56
2022-09-06T14:56:21.017Z,101401.06
2022-09-06T14:58:47.457Z,101397.84
2022-09-06T15:01:16.168Z,101400.72
2022-09-06T15:03:46.740Z,101407.16
2022-09-06T15:06:13.260Z,101404.59
2022-09-06T15:08:39.687Z,101405.53
2022-09-06T15:11:08.060Z,101400.56
2022-09-06T15:13:38.714Z,101396.94
2022-09-06T15:16:06.607Z,101399.44
2022-09-06T15:18:33.580Z,101389.31
2022-09-06T15:21:11.031Z,101393.84
2022-09-06T15:23:37.676Z,101383.25
2022-09-06T15:26:07.815Z,101377.81
2022-09-06T15:28:35.498Z,101374.09
2022-09-06T15:31:01.993Z,101383.03
2022-09-06T15:33:30.546Z,101382.19
2022-09-06T15:35:57.181Z,101375.06
2022-09-06T15:38:24.111Z,101380.63
2022-09-06T15:40:50.803Z,101379.09
2022-09-06T15:43:17.214Z,101378.25
2022-09-06T15:45:49.419Z,101368.84
2022-09-06T15:48:17.354Z,101374.56
2022-09-06T15:50:51.709Z,101375.97
2022-09-06T15:53:19.592Z,101384.09
2022-09-06T15:55:58.487Z,101364.34
2022-09-06T15:58:26.684Z,101363.03
2022-09-06T16:01:08.670Z,101368.34
2022-09-06T16:03:37.380Z,101355.50
2022-09-06T16:06:26.846Z,101356.91
2022-09-06T16:09:03.750Z,101359.75
2022-09-06T16:11:32.587Z,101355.41
2022-09-06T16:13:59.177Z,101351.13
2022-09-06T16:16:25.749Z,101352.72
2022-09-06T16:18:52.312Z,101354.28
2022-09-06T16:21:23.828Z,101354.38
2022-09-06T16:23:53.859Z,101349.31
2022-09-06T16:26:22.023Z,101355.41
2022-09-06T16:28:50.535Z,101358.06
2022-09-06T16:31:17.883Z,101358.78
2022-09-06T16:33:45.571Z,101354.38
2022-09-06T16:36:13.874Z,101353.19
2022-09-06T16:38:41.753Z,101361.75
2022-09-06T16:41:19.701Z,101354.75
2022-09-06T16:43:47.376Z,101349.72
2022-09-06T16:46:13.878Z,101344.63
2022-09-06T16:48:42.957Z,101353.06
2022-09-06T16:51:18.176Z,101349.31
2022-09-06T16:53:46.938Z,101339.75
2022-09-06T16:56:16.234Z,101341.16
2022-09-06T16:58:44.305Z,101336.25
2022-09-06T17:01:10.999Z,101334.97
2022-09-06T17:03:38.453Z,101329.25
2022-09-06T17:06:06.145Z,101326.50
2022-09-06T17:08:34.245Z,101332.09
2022-09-06T17:11:06.583Z,101330.69
2022-09-06T17:13:33.044Z,101333.63
2022-09-06T17:16:22.118Z,101324.59
2022-09-06T17:18:50.047Z,101323.47
2022-09-06T17:21:16.468Z,101328.84
2022-09-06T17:23:43.018Z,101327.75
2022-09-06T17:26:09.431Z,101329.28
2022-09-06T17:28:37.383Z,101324.34
2022-09-06T17:31:05.465Z,101326.09
2022-09-06T17:33:32.027Z,101335.19
2022-09-06T17:36:07.060Z,101338.44
2022-09-06T17:38:34.467Z,101344.38
2022-09-06T17:41:02.203Z,101340.91
2022-09-06T17:43:28.818Z,101339.38
2022-09-06T17:45:55.316Z,101340.78
2022-09-06T17:48:21.979Z,101342.44
2022-09-06T17:50:48.498Z,101353.63
2022-09-06T17:53:14.955Z,101353.63
2022-09-06T17:55:41.898Z,101355.72
2022-09-06T17:58:08.662Z,101352.88
2022-09-06T18:00:39.385Z,101349.81
2022-09-06T18:03:07.134Z,101358.09
2022-09-06T18:05:39.654Z,101357.13
2022-09-06T18:08:07.883Z,101360.09
2022-09-06T18:10:38.260Z,101367.84
2022-09-06T18:13:06.006Z,101364.41
2022-09-06T18:15:38.141Z,101359.66
2022-09-06T18:18:04.596Z,101356.69
2022-09-06T18:20:31.054Z,101353.41
2022-09-06T18:22:58.029Z,101361.97
2022-09-06T18:25:24.593Z,101357.66
2022-09-06T18:27:51.191Z,101360.00
2022-09-06T18:30:17.866Z,101353.13
2022-09-06T18:32:44.726Z,101355.06
2022-09-06T18:35:11.274Z,101360.00
2022-09-06T18:37:38.086Z,101354.88
2022-09-06T18:40:05.163Z,101353.88
2022-09-06T18:42:31.975Z,101352.75
2022-09-06T18:44:58.526Z,101354.91
2022-09-06T18:47:24.977Z,101360.63
2022-09-06T18:49:51.443Z,101355.47
2022-09-06T18:52:20.073Z,101362.63
2022-09-06T18:54:46.526Z,101363.47
2022-09-06T18:57:13.027Z,101369.31
2022-09-06T18:59:39.510Z,101363.03
2022-09-06T19:02:06.422Z,101364.72
2022-09-06T19:04:32.993Z,101367.69
2022-09-06T19:07:02.124Z,101354.78
2022-09-06T19:09:30.922Z,101362.56
2022-09-06T19:11:57.356Z,101356.28
2022-09-06T19:14:23.807Z,101347.38
2022-09-06T19:16:51.634Z,101358.97
2022-09-06T19:19:18.202Z,101360.44
2022-09-06T19:21:44.629Z,101368.50
2022-09-06T19:24:12.535Z,101363.13
2022-09-06T19:26:41.683Z,101362.19
2022-09-06T19:29:13.363Z,101361.91
2022-09-06T19:31:39.958Z,101353.53
2022-09-06T19:34:06.466Z,101361.38
2022-09-06T19:36:33.179Z,101360.69
2022-09-06T19:39:03.982Z,101359.72
2022-09-06T19:41:33.164Z,101363.41
2022-09-06T19:44:00.123Z,101369.22
2022-09-06T19:46:27.529Z,101361.91
2022-09-06T19:48:56.098Z,101364.91
2022-09-06T19:51:23.565Z,101359.53
2022-09-06T19:53:57.256Z,101364.38
2022-09-06T19:56:26.432Z,101361.56
2022-09-06T19:59:15.562Z,101353.66
2022-09-06T20:01:43.372Z,101358.38
2022-09-06T20:04:11.877Z,101342.84
2022-09-06T20:06:38.463Z,101338.84
2022-09-06T20:09:07.607Z,101336.69
2022-09-06T20:11:35.974Z,101339.19
2022-09-06T20:14:02.495Z,101342.22
2022-09-06T20:16:30.511Z,101341.19
2022-09-06T20:18:58.974Z,101340.84
2022-09-06T20:21:26.826Z,101342.72
2022-09-06T20:23:55.692Z,101343.69
2022-09-06T20:26:24.021Z,101337.69
2022-09-06T20:28:55.718Z,101338.19
2022-09-06T20:31:22.308Z,101335.50
2022-09-06T20:33:49.953Z,101335.16
2022-09-06T20:36:18.182Z,101329.34
2022-09-06T20:38:45.797Z,101329.38
2022-09-06T20:41:17.976Z,101325.88
2022-09-06T20:43:45.080Z,101320.53
2022-09-06T20:46:17.171Z,101312.53
2022-09-06T20:48:45.527Z,101317.72
2022-09-06T20:51:15.516Z,101315.75
2022-09-06T20:53:42.508Z,101311.53
2022-09-06T20:56:14.149Z,101310.06
2022-09-06T20:58:41.473Z,101299.00
2022-09-06T21:01:15.458Z,101296.00
2022-09-06T21:03:42.749Z,101303.72
2022-09-06T21:06:10.639Z,101298.69
2022-09-06T21:08:42.375Z,101293.72
2022-09-06T21:11:09.805Z,101295.19
2022-09-06T21:13:36.630Z,101299.19
2022-09-06T21:16:03.687Z,101291.66
2022-09-06T21:18:31.286Z,101289.00
2022-09-06T21:21:04.075Z,101281.88
2022-09-06T21:23:32.809Z,101279.50
2022-09-06T21:26:11.510Z,101273.34
2022-09-06T21:28:39.817Z,101271.81
2022-09-06T21:31:09.117Z,101269.50
2022-09-06T21:33:37.505Z,101263.47
2022-09-06T21:36:06.991Z,101269.84
2022-09-06T21:38:38.660Z,101265.16
2022-09-06T21:41:06.938Z,101274.53
2022-09-06T21:43:38.276Z,101264.16
2022-09-06T21:46:11.801Z,101272.03
2022-09-06T21:48:39.308Z,101268.50
2022-09-06T21:51:10.450Z,101268.72
2022-09-06T21:53:37.236Z,101272.53
2022-09-06T21:56:04.926Z,101273.22
2022-09-06T21:58:32.587Z,101271.88
2022-09-06T22:01:01.272Z,101260.84
2022-09-06T22:03:30.390Z,101257.84
2022-09-06T22:05:57.258Z,101257.34
2022-09-06T22:08:24.819Z,101247.69
2022-09-06T22:10:51.868Z,101243.16
2022-09-06T22:13:20.173Z,101249.00
2022-09-06T22:15:46.720Z,101249.84
2022-09-06T22:18:13.559Z,101243.16
2022-09-06T22:20:40.174Z,101238.66
2022-09-06T22:23:08.202Z,101235.00
2022-09-06T22:25:34.713Z,101245.53
2022-09-06T22:28:01.357Z,101234.31
2022-09-06T22:30:27.783Z,101231.84
2022-09-06T22:32:54.508Z,101228.63
2022-09-06T22:35:21.374Z,101230.13
2022-09-06T22:37:47.822Z,101221.78
2022-09-06T22:40:14.246Z,101227.28
2022-09-06T22:42:40.731Z,101230.50
2022-09-06T22:45:07.611Z,101228.00
2022-09-06T22:47:34.037Z,101235.13
2022-09-06T22:50:00.458Z,101232.28
2022-09-06T22:52:26.963Z,101227.78
2022-09-06T22:54:53.377Z,101216.78
2022-09-06T22:57:19.803Z,101221.75
2022-09-06T22:59:46.264Z,101222.66
2022-09-06T23:02:12.701Z,101221.97
2022-09-06T23:04:39.193Z,101222.16
2022-09-06T23:07:05.951Z,101219.75
2022-09-06T23:09:32.403Z,101221.28
2022-09-06T23:11:58.839Z,101215.44
2022-09-06T23:14:27.880Z,101216.09
2022-09-06T23:16:54.357Z,101219.28
2022-09-06T23:19:20.812Z,101214.44
2022-09-06T23:21:47.234Z,101222.28
2022-09-06T23:24:13.713Z,101215.78
2022-09-06T23:26:40.194Z,101218.94
2022-09-06T23:29:07.828Z,101224.78
2022-09-06T23:31:34.452Z,101222.75
2022-09-06T23:34:02.490Z,101223.63
2022-09-06T23:36:29.439Z,101223.13
2022-09-06T23:38:56.035Z,101218.25
2022-09-06T23:41:23.544Z,101218.63
2022-09-06T23:43:50.172Z,101217.78
2022-09-06T23:46:16.838Z,101234.16
2022-09-06T23:48:43.508Z,101226.28
2022-09-06T23:51:10.977Z,101228.28
2022-09-06T23:53:37.597Z,101226.13
2022-09-06T23:56:04.986Z,101223.44
2022-09-06T23:58:31.717Z,101219.41
